createdAt,value
2023-02-03T00:01:38.013Z,85.04
2023-02-03T00:05:19.956Z,84.54
2023-02-03T00:09:08.032Z,84.89
2023-02-03T00:12:57.271Z,85.39
2023-02-03T00:16:46.759Z,85.87
2023-02-03T00:20:36.054Z,85.69
2023-02-03T00:24:25.374Z,86.07
2023-02-03T00:28:14.625Z,86.11
2023-02-03T00:31:56.847Z,86.67
2023-02-03T00:35:46.219Z,86.44
2023-02-03T00:39:35.531Z,86.41
2023-02-03T00:43:24.601Z,85.74
2023-02-03T00:47:13.747Z,86.12
2023-02-03T00:51:03.287Z,85.29
2023-02-03T00:54:52.517Z,86.06
2023-02-03T00:58:41.795Z,85.87
2023-02-03T01:02:31.131Z,86.14
2023-02-03T01:06:20.506Z,86.00
2023-02-03T01:10:09.798Z,86.11
2023-02-03T01:13:52.820Z,86.02
2023-02-03T01:17:42.046Z,85.96
2023-02-03T01:21:31.294Z,85.85
2023-02-03T01:25:20.481Z,85.96
2023-02-03T01:29:09.721Z,86.48
2023-02-03T01:32:59.141Z,86.51
2023-02-03T01:36:51.322Z,86.71
2023-02-03T01:40:40.508Z,86.19
2023-02-03T01:44:07.545Z,85.78
2023-02-03T01:47:59.405Z,85.68
2023-02-03T01:51:33.258Z,85.83
2023-02-03T01:55:25.268Z,85.70
2023-02-03T01:59:10.116Z,85.93
2023-02-03T02:02:59.381Z,85.85
2023-02-03T02:06:50.285Z,85.86
2023-02-03T02:10:39.635Z,85.92
2023-02-03T02:14:28.892Z,86.14
2023-02-03T02:18:25.435Z,86.26
2023-02-03T02:22:20.875Z,86.52
2023-02-03T02:26:24.704Z,86.18
2023-02-03T02:30:17.016Z,86.11
2023-02-03T02:34:10.702Z,86.16
2023-02-03T02:38:08.880Z,85.74
2023-02-03T02:42:06.972Z,85.86
2023-02-03T02:45:53.494Z,85.79
2023-02-03T02:49:45.788Z,86.06
2023-02-03T02:53:34.817Z,85.83
2023-02-03T02:57:17.842Z,86.07
2023-02-03T03:01:07.181Z,86.03
2023-02-03T03:04:56.558Z,85.87
2023-02-03T03:08:45.821Z,86.21
2023-02-03T03:12:35.057Z,86.41
2023-02-03T03:16:20.962Z,85.76
2023-02-03T03:20:07.332Z,85.78
2023-02-03T03:24:05.455Z,85.26
2023-02-03T03:27:57.388Z,84.78
2023-02-03T03:31:39.344Z,85.17
2023-02-03T03:35:20.740Z,86.16
2023-02-03T03:39:18.633Z,86.20
2023-02-03T03:43:11.472Z,86.12
2023-02-03T03:46:48.239Z,86.03
2023-02-03T03:50:37.490Z,85.69
2023-02-03T03:54:26.664Z,85.35
2023-02-03T03:58:17.488Z,84.97
2023-02-03T04:02:06.615Z,84.92
2023-02-03T04:05:39.521Z,84.61
2023-02-03T04:09:20.163Z,85.17
2023-02-03T04:13:15.164Z,85.34
2023-02-03T04:16:57.002Z,88.53
2023-02-03T04:20:45.071Z,86.97
2023-02-03T04:24:34.472Z,85.10
2023-02-03T04:28:23.723Z,83.79
2023-02-03T04:32:12.995Z,83.17
2023-02-03T04:36:02.334Z,81.43
2023-02-03T04:39:44.621Z,80.57
2023-02-03T04:47:40.281Z,80.39
2023-02-03T04:51:29.492Z,80.01
2023-02-03T04:55:18.861Z,80.12
2023-02-03T04:59:04.202Z,80.42
2023-02-03T05:02:53.423Z,80.12
2023-02-03T05:06:42.709Z,80.61
2023-02-03T05:10:31.896Z,81.24
